sensor_id;sensor_type;location;lat;lon;timestamp;P1;durP1;ratioP1;P2;durP2;ratioP2
44885;SDS011;36669;51.428;21.162;2022-09-09T00:00:44;25.38;;;12.65;;
44885;SDS011;36669;51.428;21.162;2022-09-09T00:03:17;20.13;;;11.83;;
44885;SDS011;36669;51.428;21.162;2022-09-09T00:05:55;24.30;;;12.13;;
44885;SDS011;36669;51.428;21.162;2022-09-09T00:08:29;23.08;;;12.85;;
44885;SDS011;36669;51.428;21.162;2022-09-09T00:11:18;20.75;;;11.98;;
44885;SDS011;36669;51.428;21.162;2022-09-09T00:13:54;20.40;;;11.80;;
44885;SDS011;36669;51.428;21.162;2022-09-09T00:16:25;21.73;;;12.07;;
44885;SDS011;36669;51.428;21.162;2022-09-09T00:19:05;23.33;;;11.85;;
44885;SDS011;36669;51.428;21.162;2022-09-09T00:21:36;22.38;;;11.25;;
44885;SDS011;36669;51.428;21.162;2022-09-09T00:24:09;21.85;;;11.20;;
44885;SDS011;36669;51.428;21.162;2022-09-09T00:26:41;17.13;;;11.10;;
44885;SDS011;36669;51.428;21.162;2022-09-09T00:29:35;20.42;;;11.50;;
44885;SDS011;36669;51.428;21.162;2022-09-09T00:32:13;25.70;;;12.25;;
44885;SDS011;36669;51.428;21.162;2022-09-09T00:34:47;20.50;;;11.25;;
44885;SDS011;36669;51.428;21.162;2022-09-09T00:37:15;25.52;;;11.77;;
44885;SDS011;36669;51.428;21.162;2022-09-09T00:39:44;20.05;;;12.15;;
44885;SDS011;36669;51.428;21.162;2022-09-09T00:42:23;23.10;;;12.82;;
44885;SDS011;36669;51.428;21.162;2022-09-09T00:47:54;27.10;;;12.55;;
44885;SDS011;36669;51.428;21.162;2022-09-09T00:56:22;21.60;;;12.55;;
44885;SDS011;36669;51.428;21.162;2022-09-09T01:01:37;21.63;;;13.35;;
44885;SDS011;36669;51.428;21.162;2022-09-09T01:04:02;18.38;;;12.93;;
44885;SDS011;36669;51.428;21.162;2022-09-09T01:06:36;19.80;;;13.68;;
44885;SDS011;36669;51.428;21.162;2022-09-09T01:12:03;24.20;;;14.02;;
44885;SDS011;36669;51.428;21.162;2022-09-09T01:22:11;21.60;;;12.50;;
44885;SDS011;36669;51.428;21.162;2022-09-09T01:28:03;20.48;;;11.82;;
44885;SDS011;36669;51.428;21.162;2022-09-09T01:30:33;21.23;;;11.98;;
44885;SDS011;36669;51.428;21.162;2022-09-09T01:33:03;27.98;;;13.95;;
44885;SDS011;36669;51.428;21.162;2022-09-09T01:38:17;25.45;;;12.85;;
44885;SDS011;36669;51.428;21.162;2022-09-09T01:40:43;25.27;;;12.38;;
44885;SDS011;36669;51.428;21.162;2022-09-09T01:43:09;20.10;;;11.98;;
44885;SDS011;36669;51.428;21.162;2022-09-09T01:45:35;22.00;;;12.20;;
44885;SDS011;36669;51.428;21.162;2022-09-09T01:48:03;21.58;;;11.70;;
44885;SDS011;36669;51.428;21.162;2022-09-09T01:50:28;20.13;;;12.02;;
44885;SDS011;36669;51.428;21.162;2022-09-09T01:52:57;21.15;;;12.32;;
44885;SDS011;36669;51.428;21.162;2022-09-09T01:55:35;24.67;;;12.45;;
44885;SDS011;36669;51.428;21.162;2022-09-09T02:03:49;22.15;;;12.00;;
44885;SDS011;36669;51.428;21.162;2022-09-09T02:09:05;23.08;;;13.20;;
44885;SDS011;36669;51.428;21.162;2022-09-09T02:11:33;23.00;;;14.20;;
44885;SDS011;36669;51.428;21.162;2022-09-09T02:14:06;23.63;;;14.60;;
44885;SDS011;36669;51.428;21.162;2022-09-09T02:16:40;27.80;;;14.38;;
44885;SDS011;36669;51.428;21.162;2022-09-09T02:19:23;23.48;;;14.95;;
44885;SDS011;36669;51.428;21.162;2022-09-09T02:21:55;22.92;;;14.48;;
44885;SDS011;36669;51.428;21.162;2022-09-09T02:24:22;26.33;;;14.52;;
44885;SDS011;36669;51.428;21.162;2022-09-09T02:26:49;26.17;;;15.23;;
44885;SDS011;36669;51.428;21.162;2022-09-09T02:29:25;25.80;;;14.68;;
44885;SDS011;36669;51.428;21.162;2022-09-09T02:31:54;23.08;;;14.85;;
44885;SDS011;36669;51.428;21.162;2022-09-09T02:34:23;23.98;;;14.77;;
44885;SDS011;36669;51.428;21.162;2022-09-09T02:36:50;32.17;;;20.75;;
44885;SDS011;36669;51.428;21.162;2022-09-09T02:39:18;27.83;;;17.48;;
44885;SDS011;36669;51.428;21.162;2022-09-09T02:41:44;24.05;;;15.45;;
44885;SDS011;36669;51.428;21.162;2022-09-09T02:44:11;35.10;;;19.27;;
44885;SDS011;36669;51.428;21.162;2022-09-09T02:46:43;27.85;;;15.35;;
44885;SDS011;36669;51.428;21.162;2022-09-09T02:49:18;28.98;;;15.45;;
44885;SDS011;36669;51.428;21.162;2022-09-09T02:51:59;26.10;;;15.50;;
44885;SDS011;36669;51.428;21.162;2022-09-09T02:54:30;32.38;;;17.17;;
44885;SDS011;36669;51.428;21.162;2022-09-09T02:59:51;28.35;;;16.95;;
44885;SDS011;36669;51.428;21.162;2022-09-09T03:02:17;23.77;;;15.93;;
44885;SDS011;36669;51.428;21.162;2022-09-09T03:04:42;27.55;;;17.13;;
44885;SDS011;36669;51.428;21.162;2022-09-09T03:07:08;27.90;;;16.98;;
44885;SDS011;36669;51.428;21.162;2022-09-09T03:09:33;27.67;;;17.35;;
44885;SDS011;36669;51.428;21.162;2022-09-09T03:11:59;31.77;;;19.77;;
44885;SDS011;36669;51.428;21.162;2022-09-09T03:14:24;27.55;;;17.98;;
44885;SDS011;36669;51.428;21.162;2022-09-09T03:16:50;30.40;;;17.45;;
44885;SDS011;36669;51.428;21.162;2022-09-09T03:19:17;30.75;;;17.63;;
44885;SDS011;36669;51.428;21.162;2022-09-09T03:21:43;27.95;;;18.65;;
44885;SDS011;36669;51.428;21.162;2022-09-09T03:24:08;32.70;;;19.48;;
44885;SDS011;36669;51.428;21.162;2022-09-09T03:26:34;32.58;;;19.25;;
44885;SDS011;36669;51.428;21.162;2022-09-09T03:28:59;31.25;;;19.00;;
44885;SDS011;36669;51.428;21.162;2022-09-09T03:31:25;34.90;;;20.73;;
44885;SDS011;36669;51.428;21.162;2022-09-09T03:33:50;29.08;;;20.20;;
44885;SDS011;36669;51.428;21.162;2022-09-09T03:36:16;31.17;;;21.00;;
44885;SDS011;36669;51.428;21.162;2022-09-09T03:38:42;32.90;;;19.85;;
44885;SDS011;36669;51.428;21.162;2022-09-09T03:41:07;40.13;;;21.13;;
44885;SDS011;36669;51.428;21.162;2022-09-09T03:43:33;28.83;;;20.45;;
44885;SDS011;36669;51.428;21.162;2022-09-09T03:45:59;38.15;;;23.15;;
44885;SDS011;36669;51.428;21.162;2022-09-09T03:48:25;37.13;;;23.88;;
44885;SDS011;36669;51.428;21.162;2022-09-09T03:50:52;39.63;;;26.05;;
44885;SDS011;36669;51.428;21.162;2022-09-09T03:53:20;47.03;;;25.17;;
44885;SDS011;36669;51.428;21.162;2022-09-09T03:55:47;40.47;;;24.65;;
44885;SDS011;36669;51.428;21.162;2022-09-09T03:58:17;37.38;;;24.20;;
44885;SDS011;36669;51.428;21.162;2022-09-09T04:00:43;40.00;;;26.08;;
44885;SDS011;36669;51.428;21.162;2022-09-09T04:03:09;39.15;;;26.77;;
44885;SDS011;36669;51.428;21.162;2022-09-09T04:05:34;46.83;;;29.00;;
44885;SDS011;36669;51.428;21.162;2022-09-09T04:08:00;43.20;;;27.05;;
44885;SDS011;36669;51.428;21.162;2022-09-09T04:10:26;45.67;;;28.33;;
44885;SDS011;36669;51.428;21.162;2022-09-09T04:12:51;37.95;;;25.25;;
44885;SDS011;36669;51.428;21.162;2022-09-09T04:15:17;41.58;;;25.75;;
44885;SDS011;36669;51.428;21.162;2022-09-09T04:17:43;41.85;;;27.35;;
44885;SDS011;36669;51.428;21.162;2022-09-09T04:20:09;41.58;;;26.52;;
44885;SDS011;36669;51.428;21.162;2022-09-09T04:22:34;45.03;;;28.25;;
44885;SDS011;36669;51.428;21.162;2022-09-09T04:25:00;41.55;;;27.98;;
44885;SDS011;36669;51.428;21.162;2022-09-09T04:27:25;43.67;;;28.15;;
44885;SDS011;36669;51.428;21.162;2022-09-09T04:29:51;45.65;;;27.98;;
44885;SDS011;36669;51.428;21.162;2022-09-09T04:32:16;47.60;;;28.45;;
44885;SDS011;36669;51.428;21.162;2022-09-09T04:34:42;42.08;;;28.35;;
44885;SDS011;36669;51.428;21.162;2022-09-09T04:37:07;44.35;;;29.15;;
44885;SDS011;36669;51.428;21.162;2022-09-09T04:39:33;43.35;;;26.75;;
44885;SDS011;36669;51.428;21.162;2022-09-09T04:41:58;42.42;;;26.63;;
44885;SDS011;36669;51.428;21.162;2022-09-09T04:44:24;47.13;;;28.92;;
44885;SDS011;36669;51.428;21.162;2022-09-09T04:46:49;48.17;;;28.23;;
44885;SDS011;36669;51.428;21.162;2022-09-09T04:49:15;54.00;;;28.90;;
44885;SDS011;36669;51.428;21.162;2022-09-09T04:51:40;47.78;;;28.48;;
44885;SDS011;36669;51.428;21.162;2022-09-09T04:54:06;43.25;;;26.85;;
44885;SDS011;36669;51.428;21.162;2022-09-09T04:56:31;45.72;;;28.95;;
44885;SDS011;36669;51.428;21.162;2022-09-09T04:58:57;49.05;;;29.95;;
44885;SDS011;36669;51.428;21.162;2022-09-09T05:01:22;47.70;;;28.27;;
44885;SDS011;36669;51.428;21.162;2022-09-09T05:03:48;48.10;;;28.83;;
44885;SDS011;36669;51.428;21.162;2022-09-09T05:06:14;49.25;;;29.17;;
44885;SDS011;36669;51.428;21.162;2022-09-09T05:08:42;50.00;;;29.52;;
44885;SDS011;36669;51.428;21.162;2022-09-09T05:11:15;51.35;;;29.70;;
44885;SDS011;36669;51.428;21.162;2022-09-09T05:13:45;47.72;;;30.05;;
44885;SDS011;36669;51.428;21.162;2022-09-09T05:16:11;49.85;;;29.30;;
44885;SDS011;36669;51.428;21.162;2022-09-09T05:18:38;51.83;;;29.67;;
44885;SDS011;36669;51.428;21.162;2022-09-09T05:21:05;47.08;;;29.83;;
44885;SDS011;36669;51.428;21.162;2022-09-09T05:23:31;46.78;;;28.33;;
44885;SDS011;36669;51.428;21.162;2022-09-09T05:26:00;47.65;;;28.98;;
44885;SDS011;36669;51.428;21.162;2022-09-09T05:28:27;54.85;;;29.60;;
44885;SDS011;36669;51.428;21.162;2022-09-09T05:31:05;52.05;;;29.23;;
44885;SDS011;36669;51.428;21.162;2022-09-09T05:33:33;49.70;;;28.95;;
44885;SDS011;36669;51.428;21.162;2022-09-09T05:36:03;45.40;;;28.80;;
44885;SDS011;36669;51.428;21.162;2022-09-09T05:38:31;50.85;;;30.70;;
44885;SDS011;36669;51.428;21.162;2022-09-09T05:40:57;49.85;;;29.23;;
44885;SDS011;36669;51.428;21.162;2022-09-09T05:43:23;55.70;;;30.65;;
44885;SDS011;36669;51.428;21.162;2022-09-09T05:45:58;46.92;;;28.90;;
44885;SDS011;36669;51.428;21.162;2022-09-09T05:48:27;50.47;;;29.80;;
44885;SDS011;36669;51.428;21.162;2022-09-09T05:50:53;45.67;;;28.08;;
44885;SDS011;36669;51.428;21.162;2022-09-09T05:53:18;47.70;;;28.80;;
44885;SDS011;36669;51.428;21.162;2022-09-09T05:55:44;48.78;;;28.40;;
44885;SDS011;36669;51.428;21.162;2022-09-09T05:58:09;44.97;;;27.73;;
44885;SDS011;36669;51.428;21.162;2022-09-09T06:00:35;50.88;;;27.00;;
44885;SDS011;36669;51.428;21.162;2022-09-09T06:03:00;49.88;;;28.08;;
44885;SDS011;36669;51.428;21.162;2022-09-09T06:05:26;71.95;;;44.47;;
44885;SDS011;36669;51.428;21.162;2022-09-09T06:07:52;50.75;;;28.38;;
44885;SDS011;36669;51.428;21.162;2022-09-09T06:10:18;45.00;;;25.67;;
44885;SDS011;36669;51.428;21.162;2022-09-09T06:12:43;45.90;;;26.13;;
44885;SDS011;36669;51.428;21.162;2022-09-09T06:15:09;44.65;;;26.73;;
44885;SDS011;36669;51.428;21.162;2022-09-09T06:17:34;43.35;;;26.02;;
44885;SDS011;36669;51.428;21.162;2022-09-09T06:20:00;44.00;;;25.77;;
44885;SDS011;36669;51.428;21.162;2022-09-09T06:22:25;41.80;;;25.38;;
44885;SDS011;36669;51.428;21.162;2022-09-09T06:24:51;44.22;;;27.08;;
44885;SDS011;36669;51.428;21.162;2022-09-09T06:27:16;45.63;;;27.00;;
44885;SDS011;36669;51.428;21.162;2022-09-09T06:29:42;47.35;;;27.08;;
44885;SDS011;36669;51.428;21.162;2022-09-09T06:32:07;40.58;;;25.35;;
44885;SDS011;36669;51.428;21.162;2022-09-09T06:34:33;35.38;;;22.13;;
44885;SDS011;36669;51.428;21.162;2022-09-09T06:36:59;38.47;;;22.38;;
44885;SDS011;36669;51.428;21.162;2022-09-09T06:39:25;35.92;;;21.15;;
44885;SDS011;36669;51.428;21.162;2022-09-09T06:41:50;37.38;;;22.33;;
44885;SDS011;36669;51.428;21.162;2022-09-09T06:44:16;30.52;;;20.05;;
44885;SDS011;36669;51.428;21.162;2022-09-09T06:46:41;33.55;;;21.13;;
44885;SDS011;36669;51.428;21.162;2022-09-09T06:49:10;34.20;;;22.98;;
44885;SDS011;36669;51.428;21.162;2022-09-09T06:51:36;38.05;;;23.90;;
44885;SDS011;36669;51.428;21.162;2022-09-09T06:54:02;37.25;;;21.98;;
44885;SDS011;36669;51.428;21.162;2022-09-09T06:56:30;37.28;;;21.17;;
44885;SDS011;36669;51.428;21.162;2022-09-09T06:58:58;39.13;;;22.15;;
44885;SDS011;36669;51.428;21.162;2022-09-09T07:01:26;42.10;;;24.88;;
44885;SDS011;36669;51.428;21.162;2022-09-09T07:03:53;45.05;;;23.70;;
44885;SDS011;36669;51.428;21.162;2022-09-09T07:06:24;39.47;;;20.88;;
44885;SDS011;36669;51.428;21.162;2022-09-09T07:08:52;38.38;;;22.05;;
44885;SDS011;36669;51.428;21.162;2022-09-09T07:11:23;37.67;;;20.95;;
44885;SDS011;36669;51.428;21.162;2022-09-09T07:13:53;39.85;;;22.73;;
44885;SDS011;36669;51.428;21.162;2022-09-09T07:16:19;41.00;;;23.60;;
44885;SDS011;36669;51.428;21.162;2022-09-09T07:18:46;36.30;;;20.92;;
44885;SDS011;36669;51.428;21.162;2022-09-09T07:21:12;40.00;;;21.92;;
44885;SDS011;36669;51.428;21.162;2022-09-09T07:23:39;38.38;;;21.75;;
44885;SDS011;36669;51.428;21.162;2022-09-09T07:26:13;39.08;;;22.05;;
44885;SDS011;36669;51.428;21.162;2022-09-09T07:28:40;38.40;;;21.23;;
44885;SDS011;36669;51.428;21.162;2022-09-09T07:31:06;37.35;;;20.23;;
44885;SDS011;36669;51.428;21.162;2022-09-09T07:33:33;34.55;;;21.00;;
44885;SDS011;36669;51.428;21.162;2022-09-09T07:36:04;36.65;;;21.35;;
44885;SDS011;36669;51.428;21.162;2022-09-09T07:38:37;38.50;;;21.25;;
44885;SDS011;36669;51.428;21.162;2022-09-09T07:41:07;33.50;;;19.00;;
44885;SDS011;36669;51.428;21.162;2022-09-09T07:43:35;35.45;;;18.75;;
44885;SDS011;36669;51.428;21.162;2022-09-09T07:46:01;30.67;;;18.67;;
44885;SDS011;36669;51.428;21.162;2022-09-09T07:48:26;30.95;;;18.20;;
44885;SDS011;36669;51.428;21.162;2022-09-09T07:50:52;33.40;;;17.50;;
44885;SDS011;36669;51.428;21.162;2022-09-09T07:53:27;32.58;;;17.27;;
44885;SDS011;36669;51.428;21.162;2022-09-09T07:55:52;35.17;;;17.40;;
44885;SDS011;36669;51.428;21.162;2022-09-09T07:58:18;38.72;;;18.15;;
44885;SDS011;36669;51.428;21.162;2022-09-09T08:00:43;36.58;;;20.25;;
44885;SDS011;36669;51.428;21.162;2022-09-09T08:03:09;36.90;;;20.58;;
44885;SDS011;36669;51.428;21.162;2022-09-09T08:05:34;38.30;;;19.20;;
44885;SDS011;36669;51.428;21.162;2022-09-09T08:08:00;34.53;;;17.48;;
44885;SDS011;36669;51.428;21.162;2022-09-09T08:10:26;41.67;;;20.10;;
44885;SDS011;36669;51.428;21.162;2022-09-09T08:12:51;35.10;;;18.58;;
44885;SDS011;36669;51.428;21.162;2022-09-09T08:15:17;39.03;;;19.77;;
44885;SDS011;36669;51.428;21.162;2022-09-09T08:17:42;43.58;;;20.58;;
44885;SDS011;36669;51.428;21.162;2022-09-09T08:20:08;33.67;;;18.08;;
44885;SDS011;36669;51.428;21.162;2022-09-09T08:22:34;41.83;;;20.00;;
44885;SDS011;36669;51.428;21.162;2022-09-09T08:24:59;41.47;;;20.65;;
44885;SDS011;36669;51.428;21.162;2022-09-09T08:27:25;43.10;;;20.85;;
44885;SDS011;36669;51.428;21.162;2022-09-09T08:29:50;35.22;;;19.65;;
44885;SDS011;36669;51.428;21.162;2022-09-09T08:32:16;34.65;;;17.25;;
44885;SDS011;36669;51.428;21.162;2022-09-09T08:34:41;35.15;;;17.48;;
44885;SDS011;36669;51.428;21.162;2022-09-09T08:37:07;31.83;;;16.30;;
44885;SDS011;36669;51.428;21.162;2022-09-09T08:39:32;34.88;;;16.48;;
44885;SDS011;36669;51.428;21.162;2022-09-09T08:42:07;31.75;;;17.00;;
44885;SDS011;36669;51.428;21.162;2022-09-09T08:45:19;26.38;;;13.70;;
44885;SDS011;36669;51.428;21.162;2022-09-09T08:47:55;23.77;;;13.50;;
44885;SDS011;36669;51.428;21.162;2022-09-09T08:50:37;20.40;;;11.80;;
44885;SDS011;36669;51.428;21.162;2022-09-09T08:55:49;21.60;;;13.23;;
44885;SDS011;36669;51.428;21.162;2022-09-09T08:58:26;24.80;;;14.80;;
44885;SDS011;36669;51.428;21.162;2022-09-09T09:03:47;23.00;;;12.18;;
44885;SDS011;36669;51.428;21.162;2022-09-09T09:11:34;16.45;;;10.88;;
44885;SDS011;36669;51.428;21.162;2022-09-09T09:14:09;18.50;;;11.20;;
44885;SDS011;36669;51.428;21.162;2022-09-09T09:19:24;16.77;;;11.57;;
44885;SDS011;36669;51.428;21.162;2022-09-09T09:27:36;17.52;;;10.98;;
44885;SDS011;36669;51.428;21.162;2022-09-09T09:30:25;20.25;;;10.75;;
44885;SDS011;36669;51.428;21.162;2022-09-09T09:35:51;15.90;;;10.60;;
44885;SDS011;36669;51.428;21.162;2022-09-09T09:38:25;19.52;;;11.18;;
44885;SDS011;36669;51.428;21.162;2022-09-09T09:40:52;18.10;;;11.07;;
44885;SDS011;36669;51.428;21.162;2022-09-09T09:45:59;17.98;;;11.32;;
44885;SDS011;36669;51.428;21.162;2022-09-09T09:48:25;19.98;;;11.57;;
44885;SDS011;36669;51.428;21.162;2022-09-09T09:50:53;17.27;;;12.43;;
44885;SDS011;36669;51.428;21.162;2022-09-09T09:55:58;18.35;;;11.63;;
44885;SDS011;36669;51.428;21.162;2022-09-09T09:58:32;25.38;;;13.10;;
44885;SDS011;36669;51.428;21.162;2022-09-09T10:01:24;21.85;;;13.00;;
44885;SDS011;36669;51.428;21.162;2022-09-09T10:03:53;20.48;;;13.32;;
44885;SDS011;36669;51.428;21.162;2022-09-09T10:08:56;23.23;;;14.07;;
44885;SDS011;36669;51.428;21.162;2022-09-09T10:11:43;23.50;;;14.50;;
44885;SDS011;36669;51.428;21.162;2022-09-09T10:19:29;21.55;;;14.70;;
44885;SDS011;36669;51.428;21.162;2022-09-09T10:24:36;25.23;;;13.93;;
44885;SDS011;36669;51.428;21.162;2022-09-09T10:32:36;24.27;;;13.68;;
44885;SDS011;36669;51.428;21.162;2022-09-09T10:40:26;22.88;;;14.60;;
44885;SDS011;36669;51.428;21.162;2022-09-09T10:42:56;24.63;;;15.05;;
44885;SDS011;36669;51.428;21.162;2022-09-09T10:51:00;22.95;;;14.27;;
44885;SDS011;36669;51.428;21.162;2022-09-09T10:53:41;23.70;;;15.30;;
44885;SDS011;36669;51.428;21.162;2022-09-09T10:56:16;27.92;;;16.17;;
44885;SDS011;36669;51.428;21.162;2022-09-09T10:58:45;27.42;;;16.83;;
44885;SDS011;36669;51.428;21.162;2022-09-09T11:01:28;27.75;;;16.80;;
44885;SDS011;36669;51.428;21.162;2022-09-09T11:04:03;27.38;;;17.38;;
44885;SDS011;36669;51.428;21.162;2022-09-09T11:06:55;27.17;;;17.67;;
44885;SDS011;36669;51.428;21.162;2022-09-09T11:09:22;27.55;;;17.27;;
44885;SDS011;36669;51.428;21.162;2022-09-09T11:11:54;28.75;;;18.08;;
44885;SDS011;36669;51.428;21.162;2022-09-09T11:17:15;29.58;;;17.90;;
44885;SDS011;36669;51.428;21.162;2022-09-09T11:19:45;28.55;;;18.10;;
44885;SDS011;36669;51.428;21.162;2022-09-09T11:22:15;30.25;;;18.95;;
44885;SDS011;36669;51.428;21.162;2022-09-09T11:30:22;32.55;;;20.17;;
44885;SDS011;36669;51.428;21.162;2022-09-09T11:39:02;28.65;;;18.02;;
44885;SDS011;36669;51.428;21.162;2022-09-09T11:41:50;28.85;;;18.30;;
44885;SDS011;36669;51.428;21.162;2022-09-09T11:44:23;29.85;;;18.08;;
44885;SDS011;36669;51.428;21.162;2022-09-09T11:46:53;27.85;;;17.83;;
44885;SDS011;36669;51.428;21.162;2022-09-09T11:49:25;26.30;;;17.00;;
44885;SDS011;36669;51.428;21.162;2022-09-09T11:51:53;27.58;;;17.75;;
44885;SDS011;36669;51.428;21.162;2022-09-09T11:54:32;25.58;;;16.20;;
44885;SDS011;36669;51.428;21.162;2022-09-09T11:57:25;27.25;;;16.45;;
44885;SDS011;36669;51.428;21.162;2022-09-09T12:00:01;24.45;;;15.50;;
44885;SDS011;36669;51.428;21.162;2022-09-09T12:02:28;21.15;;;14.23;;
44885;SDS011;36669;51.428;21.162;2022-09-09T12:12:52;21.00;;;13.57;;
44885;SDS011;36669;51.428;21.162;2022-09-09T12:15:28;21.75;;;14.32;;
44885;SDS011;36669;51.428;21.162;2022-09-09T12:17:55;21.88;;;14.82;;
44885;SDS011;36669;51.428;21.162;2022-09-09T12:31:21;23.00;;;14.55;;
44885;SDS011;36669;51.428;21.162;2022-09-09T12:34:09;23.92;;;14.40;;
44885;SDS011;36669;51.428;21.162;2022-09-09T12:36:38;22.85;;;15.43;;
44885;SDS011;36669;51.428;21.162;2022-09-09T12:39:10;21.33;;;14.80;;
44885;SDS011;36669;51.428;21.162;2022-09-09T12:41:58;20.13;;;13.15;;
44885;SDS011;36669;51.428;21.162;2022-09-09T12:44:24;21.80;;;13.65;;
44885;SDS011;36669;51.428;21.162;2022-09-09T12:46:50;23.67;;;15.13;;
44885;SDS011;36669;51.428;21.162;2022-09-09T12:49:36;21.27;;;13.50;;
44885;SDS011;36669;51.428;21.162;2022-09-09T12:52:23;20.70;;;13.55;;
44885;SDS011;36669;51.428;21.162;2022-09-09T12:54:54;20.80;;;14.07;;
44885;SDS011;36669;51.428;21.162;2022-09-09T12:57:19;22.35;;;15.00;;
44885;SDS011;36669;51.428;21.162;2022-09-09T12:59:48;17.25;;;12.60;;
44885;SDS011;36669;51.428;21.162;2022-09-09T13:02:21;23.85;;;11.93;;
44885;SDS011;36669;51.428;21.162;2022-09-09T13:04:48;18.20;;;12.73;;
44885;SDS011;36669;51.428;21.162;2022-09-09T13:07:14;19.63;;;11.25;;
44885;SDS011;36669;51.428;21.162;2022-09-09T13:09:39;16.67;;;11.60;;
44885;SDS011;36669;51.428;21.162;2022-09-09T13:12:06;14.32;;;10.63;;
44885;SDS011;36669;51.428;21.162;2022-09-09T13:14:45;13.13;;;9.70;;
44885;SDS011;36669;51.428;21.162;2022-09-09T13:17:20;18.08;;;10.23;;
44885;SDS011;36669;51.428;21.162;2022-09-09T13:19:50;15.52;;;10.30;;
44885;SDS011;36669;51.428;21.162;2022-09-09T13:22:20;13.60;;;9.65;;
44885;SDS011;36669;51.428;21.162;2022-09-09T13:25:06;14.82;;;9.90;;
44885;SDS011;36669;51.428;21.162;2022-09-09T13:27:53;15.40;;;10.15;;
44885;SDS011;36669;51.428;21.162;2022-09-09T13:30:32;14.23;;;9.70;;
44885;SDS011;36669;51.428;21.162;2022-09-09T13:33:33;15.68;;;10.32;;
44885;SDS011;36669;51.428;21.162;2022-09-09T13:38:32;14.07;;;10.32;;
44885;SDS011;36669;51.428;21.162;2022-09-09T13:43:28;12.40;;;9.23;;
44885;SDS011;36669;51.428;21.162;2022-09-09T13:45:56;17.52;;;9.55;;
44885;SDS011;36669;51.428;21.162;2022-09-09T13:48:54;15.43;;;9.40;;
44885;SDS011;36669;51.428;21.162;2022-09-09T13:51:34;13.60;;;9.13;;
44885;SDS011;36669;51.428;21.162;2022-09-09T13:54:01;16.00;;;9.75;;
44885;SDS011;36669;51.428;21.162;2022-09-09T13:56:26;14.73;;;9.82;;
44885;SDS011;36669;51.428;21.162;2022-09-09T13:58:52;12.43;;;9.02;;
44885;SDS011;36669;51.428;21.162;2022-09-09T14:01:17;13.98;;;9.43;;
44885;SDS011;36669;51.428;21.162;2022-09-09T14:03:43;11.48;;;9.18;;
44885;SDS011;36669;51.428;21.162;2022-09-09T14:06:09;12.43;;;9.05;;
44885;SDS011;36669;51.428;21.162;2022-09-09T14:08:35;14.98;;;8.50;;
44885;SDS011;36669;51.428;21.162;2022-09-09T14:11:01;13.43;;;8.82;;
44885;SDS011;36669;51.428;21.162;2022-09-09T14:13:27;14.20;;;8.68;;
44885;SDS011;36669;51.428;21.162;2022-09-09T14:15:52;15.13;;;8.77;;
44885;SDS011;36669;51.428;21.162;2022-09-09T14:18:18;17.15;;;9.40;;
44885;SDS011;36669;51.428;21.162;2022-09-09T14:20:44;12.75;;;8.70;;
44885;SDS011;36669;51.428;21.162;2022-09-09T14:23:10;11.85;;;8.50;;
44885;SDS011;36669;51.428;21.162;2022-09-09T14:25:38;12.35;;;8.50;;
44885;SDS011;36669;51.428;21.162;2022-09-09T14:28:11;14.98;;;8.57;;
44885;SDS011;36669;51.428;21.162;2022-09-09T14:30:39;13.93;;;8.70;;
44885;SDS011;36669;51.428;21.162;2022-09-09T14:33:05;9.23;;;7.57;;
44885;SDS011;36669;51.428;21.162;2022-09-09T14:35:32;12.48;;;8.63;;
44885;SDS011;36669;51.428;21.162;2022-09-09T14:37:57;14.43;;;9.32;;
44885;SDS011;36669;51.428;21.162;2022-09-09T14:40:23;22.98;;;13.77;;
44885;SDS011;36669;51.428;21.162;2022-09-09T14:42:49;15.30;;;10.77;;
44885;SDS011;36669;51.428;21.162;2022-09-09T14:45:14;24.70;;;14.43;;
44885;SDS011;36669;51.428;21.162;2022-09-09T14:47:40;22.63;;;14.00;;
44885;SDS011;36669;51.428;21.162;2022-09-09T14:50:05;18.88;;;11.43;;
44885;SDS011;36669;51.428;21.162;2022-09-09T14:52:31;18.75;;;11.88;;
44885;SDS011;36669;51.428;21.162;2022-09-09T14:54:57;18.88;;;12.32;;
44885;SDS011;36669;51.428;21.162;2022-09-09T14:57:22;20.73;;;12.70;;
44885;SDS011;36669;51.428;21.162;2022-09-09T14:59:48;21.38;;;12.68;;
44885;SDS011;36669;51.428;21.162;2022-09-09T15:02:13;17.77;;;11.93;;
44885;SDS011;36669;51.428;21.162;2022-09-09T15:04:39;18.83;;;11.82;;
44885;SDS011;36669;51.428;21.162;2022-09-09T15:07:04;16.50;;;11.65;;
44885;SDS011;36669;51.428;21.162;2022-09-09T15:09:30;20.48;;;12.35;;
44885;SDS011;36669;51.428;21.162;2022-09-09T15:11:55;18.73;;;11.80;;
44885;SDS011;36669;51.428;21.162;2022-09-09T15:14:21;17.58;;;10.95;;
44885;SDS011;36669;51.428;21.162;2022-09-09T15:16:46;19.73;;;11.73;;
44885;SDS011;36669;51.428;21.162;2022-09-09T15:19:12;16.13;;;11.48;;
44885;SDS011;36669;51.428;21.162;2022-09-09T15:21:38;17.58;;;11.55;;
44885;SDS011;36669;51.428;21.162;2022-09-09T15:24:03;15.18;;;10.50;;
44885;SDS011;36669;51.428;21.162;2022-09-09T15:26:30;21.25;;;12.48;;
44885;SDS011;36669;51.428;21.162;2022-09-09T15:28:55;20.27;;;12.15;;
44885;SDS011;36669;51.428;21.162;2022-09-09T15:31:22;20.65;;;13.88;;
44885;SDS011;36669;51.428;21.162;2022-09-09T15:33:59;26.50;;;18.33;;
44885;SDS011;36669;51.428;21.162;2022-09-09T15:36:47;16.92;;;11.35;;
44885;SDS011;36669;51.428;21.162;2022-09-09T15:39:13;19.30;;;11.70;;
44885;SDS011;36669;51.428;21.162;2022-09-09T15:41:40;19.73;;;11.68;;
44885;SDS011;36669;51.428;21.162;2022-09-09T15:44:06;19.83;;;12.30;;
44885;SDS011;36669;51.428;21.162;2022-09-09T15:46:37;18.65;;;10.82;;
44885;SDS011;36669;51.428;21.162;2022-09-09T15:49:05;17.77;;;11.70;;
44885;SDS011;36669;51.428;21.162;2022-09-09T15:51:32;21.52;;;15.10;;
44885;SDS011;36669;51.428;21.162;2022-09-09T15:53:58;18.50;;;11.75;;
44885;SDS011;36669;51.428;21.162;2022-09-09T15:56:25;15.88;;;11.15;;
44885;SDS011;36669;51.428;21.162;2022-09-09T15:58:51;20.35;;;11.50;;
44885;SDS011;36669;51.428;21.162;2022-09-09T16:01:17;18.42;;;11.80;;
44885;SDS011;36669;51.428;21.162;2022-09-09T16:03:43;18.48;;;12.32;;
44885;SDS011;36669;51.428;21.162;2022-09-09T16:06:09;27.38;;;13.52;;
44885;SDS011;36669;51.428;21.162;2022-09-09T16:08:35;21.30;;;12.55;;
44885;SDS011;36669;51.428;21.162;2022-09-09T16:11:07;28.00;;;14.75;;
44885;SDS011;36669;51.428;21.162;2022-09-09T16:13:43;23.30;;;14.98;;
44885;SDS011;36669;51.428;21.162;2022-09-09T16:16:10;28.65;;;15.77;;
44885;SDS011;36669;51.428;21.162;2022-09-09T16:18:41;29.05;;;16.67;;
44885;SDS011;36669;51.428;21.162;2022-09-09T16:21:11;28.75;;;16.05;;
44885;SDS011;36669;51.428;21.162;2022-09-09T16:23:40;26.13;;;16.17;;
44885;SDS011;36669;51.428;21.162;2022-09-09T16:26:05;26.73;;;15.05;;
44885;SDS011;36669;51.428;21.162;2022-09-09T16:28:31;28.63;;;15.77;;
44885;SDS011;36669;51.428;21.162;2022-09-09T16:30:56;43.65;;;25.23;;
44885;SDS011;36669;51.428;21.162;2022-09-09T16:33:22;28.05;;;17.48;;
44885;SDS011;36669;51.428;21.162;2022-09-09T16:35:47;31.48;;;16.60;;